createdAt,value
2019-02-22T00:01:08.660Z,101822.44
2019-02-22T00:06:14.829Z,101822.02
2019-02-22T00:11:21.756Z,101827.85
2019-02-22T00:16:27.587Z,101845.09
2019-02-22T00:21:33.696Z,101850.22
2019-02-22T00:26:40.374Z,101862.07
2019-02-22T00:31:47.105Z,101864.86
2019-02-22T00:36:53.304Z,101881.03
2019-02-22T00:41:58.884Z,101882.05
2019-02-22T00:47:05.677Z,101906.50
2019-02-22T00:52:12.395Z,101898.00
2019-02-22T00:57:20.392Z,101902.32
2019-02-22T01:02:27.802Z,101918.56
2019-02-22T01:07:34.738Z,101919.34
2019-02-22T01:12:41.425Z,101930.39
2019-02-22T01:17:47.396Z,101928.69
2019-02-22T01:22:53.124Z,101947.70
2019-02-22T01:28:00.485Z,101961.09
2019-02-22T01:33:06.544Z,101968.31
2019-02-22T01:38:13.240Z,101976.06
2019-02-22T01:43:19.112Z,101993.52
2019-02-22T01:48:24.721Z,101999.30
2019-02-22T01:53:30.812Z,101996.66
2019-02-22T01:58:47.957Z,102003.36
2019-02-22T02:03:44.575Z,102009.27
2019-02-22T02:08:51.185Z,102026.14
2019-02-22T02:13:57.090Z,102030.86
2019-02-22T02:19:02.730Z,102036.82
2019-02-22T02:24:08.818Z,102039.17
2019-02-22T02:29:14.929Z,102055.18
2019-02-22T02:34:20.709Z,102062.67
2019-02-22T02:39:27.016Z,102059.33
2019-02-22T02:44:32.591Z,102073.94
2019-02-22T02:49:38.202Z,102080.42
2019-02-22T02:54:43.794Z,102089.16
2019-02-22T02:59:51.168Z,102096.33
2019-02-22T03:04:57.254Z,102111.95
2019-02-22T03:10:03.319Z,102125.54
2019-02-22T03:15:12.234Z,102122.58
2019-02-22T03:20:18.284Z,102135.72
2019-02-22T03:25:24.319Z,102138.72
2019-02-22T03:30:30.334Z,102151.74
2019-02-22T03:35:36.558Z,102150.97
2019-02-22T03:40:42.742Z,102156.66
2019-02-22T03:45:48.717Z,102158.77
2019-02-22T03:50:54.433Z,102176.25
2019-02-22T03:56:00.498Z,102188.88
2019-02-22T04:01:06.521Z,102192.96
2019-02-22T04:06:12.554Z,102207.13
2019-02-22T04:11:18.208Z,102223.79
2019-02-22T04:16:24.383Z,102236.69
2019-02-22T04:21:30.606Z,102241.57
2019-02-22T04:26:36.990Z,102246.91
2019-02-22T04:31:42.770Z,102267.25
2019-02-22T04:36:48.600Z,102285.53
2019-02-22T04:41:58.051Z,102306.67
2019-02-22T04:47:01.890Z,102314.73
2019-02-22T04:52:09.158Z,102333.02
2019-02-22T04:57:15.107Z,102357.27
2019-02-22T05:02:21.004Z,102366.70
2019-02-22T05:07:27.601Z,102374.32
2019-02-22T05:12:33.433Z,102394.03
2019-02-22T05:17:39.040Z,102403.86
2019-02-22T05:22:44.960Z,102437.20
2019-02-22T05:27:51.262Z,102448.59
2019-02-22T05:32:56.831Z,102466.25
2019-02-22T05:38:03.085Z,102488.88
2019-02-22T05:43:08.778Z,102493.84
2019-02-22T05:48:14.616Z,102509.12
2019-02-22T05:53:20.607Z,102518.55
2019-02-22T05:58:28.820Z,102524.55
2019-02-22T06:03:35.297Z,102553.69
2019-02-22T06:08:43.038Z,102569.22
2019-02-22T06:13:48.625Z,102587.98
2019-02-22T06:18:54.559Z,102600.37
2019-02-22T06:24:02.757Z,102617.94
2019-02-22T06:29:08.645Z,102634.98
2019-02-22T06:34:14.460Z,102646.06
2019-02-22T06:39:20.507Z,102664.09
2019-02-22T06:44:26.243Z,102683.75
2019-02-22T06:49:32.276Z,102697.34
2019-02-22T06:54:39.455Z,102724.66
2019-02-22T06:59:45.491Z,102731.92
2019-02-22T07:04:52.735Z,102757.58
2019-02-22T07:09:58.599Z,102752.20
2019-02-22T07:15:06.579Z,102766.48
2019-02-22T07:20:12.371Z,102780.55
2019-02-22T07:25:18.977Z,102798.09
2019-02-22T07:30:24.562Z,102815.31
2019-02-22T07:35:30.634Z,102831.42
2019-02-22T07:40:37.633Z,102844.55
2019-02-22T07:45:44.083Z,102860.64
2019-02-22T07:50:57.488Z,102877.06
2019-02-22T07:55:57.809Z,102893.39
2019-02-22T08:01:04.868Z,102910.08
2019-02-22T08:06:10.726Z,102921.89
2019-02-22T08:11:16.466Z,102948.39
2019-02-22T08:16:22.373Z,102961.87
2019-02-22T08:21:29.940Z,102975.67
2019-02-22T08:26:35.542Z,102988.55
2019-02-22T08:31:41.499Z,103000.28
2019-02-22T08:36:47.245Z,103010.14
2019-02-22T08:41:53.636Z,103023.61
2019-02-22T08:46:59.535Z,103032.27
2019-02-22T08:52:05.511Z,103045.25
2019-02-22T08:57:11.549Z,103051.75
2019-02-22T09:02:17.520Z,103059.92
2019-02-22T09:07:23.733Z,103080.47
2019-02-22T09:12:29.484Z,103094.53
2019-02-22T09:17:35.119Z,103102.91
2019-02-22T09:22:41.279Z,103111.63
2019-02-22T09:27:47.206Z,103109.55
2019-02-22T09:32:53.266Z,103120.69
2019-02-22T09:37:58.907Z,103120.20
2019-02-22T09:43:04.715Z,103125.13
2019-02-22T09:48:11.185Z,103132.03
2019-02-22T09:53:16.824Z,103148.45
2019-02-22T09:58:23.382Z,103150.23
2019-02-22T10:03:31.797Z,103164.85
2019-02-22T10:08:40.028Z,103159.58
2019-02-22T10:13:46.170Z,103162.95
2019-02-22T10:18:53.203Z,103173.29
2019-02-22T10:23:59.657Z,103179.92
2019-02-22T10:29:07.330Z,103183.32
2019-02-22T10:34:13.044Z,103190.95
2019-02-22T10:39:19.794Z,103183.84
2019-02-22T10:44:26.574Z,103181.06
2019-02-22T10:49:32.786Z,103188.22
2019-02-22T10:54:39.069Z,103195.71
2019-02-22T10:59:44.851Z,103202.52
2019-02-22T11:04:50.875Z,103203.66
2019-02-22T11:09:56.485Z,103204.66
2019-02-22T11:15:02.342Z,103204.35
2019-02-22T11:20:09.996Z,103199.02
2019-02-22T11:25:16.799Z,103206.85
2019-02-22T11:30:23.722Z,103206.02
2019-02-22T11:35:29.981Z,103211.91
2019-02-22T11:40:36.892Z,103229.61
2019-02-22T11:45:42.727Z,103229.20
2019-02-22T11:50:48.801Z,103241.34
2019-02-22T11:55:55.608Z,103252.56
2019-02-22T12:01:01.512Z,103260.48
2019-02-22T12:06:08.005Z,103263.31
2019-02-22T12:11:13.628Z,103262.78
2019-02-22T12:16:19.749Z,103273.48
2019-02-22T12:21:26.323Z,103274.20
2019-02-22T12:26:32.215Z,103286.17
2019-02-22T12:31:38.355Z,103289.21
2019-02-22T12:36:45.708Z,103302.36
2019-02-22T12:41:53.621Z,103305.44
2019-02-22T12:47:01.537Z,103301.83
2019-02-22T12:52:07.369Z,103303.78
2019-02-22T12:57:12.929Z,103315.53
2019-02-22T13:02:19.855Z,103315.07
2019-02-22T13:07:25.969Z,103314.51
2019-02-22T13:12:31.543Z,103320.63
2019-02-22T13:17:39.305Z,103317.97
2019-02-22T13:22:44.922Z,103324.00
2019-02-22T13:27:50.790Z,103329.13
2019-02-22T13:32:57.233Z,103328.72
2019-02-22T13:38:03.917Z,103333.66
2019-02-22T13:43:10.549Z,103328.69
2019-02-22T13:48:17.404Z,103332.09
2019-02-22T13:53:23.802Z,103335.34
2019-02-22T13:58:29.565Z,103339.25
2019-02-22T14:03:35.530Z,103341.43
2019-02-22T14:08:43.468Z,103340.46
2019-02-22T14:13:50.597Z,103347.77
2019-02-22T14:18:56.699Z,103350.09
2019-02-22T14:24:02.916Z,103353.72
2019-02-22T14:29:09.114Z,103352.67
2019-02-22T14:34:16.179Z,103363.77
2019-02-22T14:39:23.311Z,103370.29
2019-02-22T14:44:29.037Z,103377.89
2019-02-22T14:49:37.371Z,103379.59
2019-02-22T14:54:43.497Z,103381.57
2019-02-22T14:59:50.410Z,103394.97
2019-02-22T15:04:56.779Z,103396.13
2019-02-22T15:10:05.586Z,103402.81
2019-02-22T15:15:18.676Z,103398.17
2019-02-22T15:20:26.044Z,103402.77
2019-02-22T15:25:32.349Z,103413.34
2019-02-22T15:30:38.180Z,103418.16
2019-02-22T15:35:45.012Z,103423.75
2019-02-22T15:40:53.781Z,103426.84
2019-02-22T15:46:11.771Z,103431.03
2019-02-22T15:51:10.148Z,103436.84
2019-02-22T15:56:18.248Z,103445.49
2019-02-22T16:01:23.686Z,103455.27
2019-02-22T16:06:32.373Z,103456.73
2019-02-22T16:11:40.220Z,103466.15
2019-02-22T16:16:46.642Z,103473.05
2019-02-22T16:21:53.240Z,103477.47
2019-02-22T16:27:02.575Z,103475.91
2019-02-22T16:32:08.419Z,103482.53
2019-02-22T16:37:15.319Z,103497.50
2019-02-22T16:42:22.592Z,103504.21
2019-02-22T16:47:39.312Z,103513.52
2019-02-22T16:52:36.956Z,103526.12
2019-02-22T16:57:42.934Z,103526.98
2019-02-22T17:02:48.748Z,103532.88
2019-02-22T17:07:55.252Z,103533.41
2019-02-22T17:13:01.461Z,103544.78
2019-02-22T17:18:07.450Z,103556.69
2019-02-22T17:23:13.372Z,103552.48
2019-02-22T17:28:18.948Z,103565.66
2019-02-22T17:33:25.772Z,103569.88
2019-02-22T17:38:33.061Z,103579.91
2019-02-22T17:43:41.279Z,103575.61
2019-02-22T17:48:49.440Z,103591.20
2019-02-22T17:53:58.426Z,103596.28
2019-02-22T17:59:04.603Z,103611.84
2019-02-22T18:04:11.370Z,103606.39
2019-02-22T18:09:17.671Z,103604.12
2019-02-22T18:14:23.311Z,103604.23
2019-02-22T18:19:32.096Z,103619.94
2019-02-22T18:24:38.863Z,103617.78
2019-02-22T18:29:44.895Z,103612.64
2019-02-22T18:34:51.357Z,103618.45
2019-02-22T18:39:57.689Z,103623.53
2019-02-22T18:45:05.357Z,103631.25
2019-02-22T18:50:11.863Z,103643.41
2019-02-22T18:55:19.539Z,103649.48
2019-02-22T19:00:25.742Z,103657.41
2019-02-22T19:05:37.004Z,103652.06
2019-02-22T19:10:43.940Z,103656.25
2019-02-22T19:15:49.800Z,103653.94
2019-02-22T19:20:57.560Z,103663.89
2019-02-22T19:26:04.051Z,103666.92
2019-02-22T19:31:10.178Z,103673.17
2019-02-22T19:36:16.208Z,103684.31
2019-02-22T19:41:22.177Z,103685.15
2019-02-22T19:46:28.870Z,103686.50
2019-02-22T19:51:35.074Z,103687.52
2019-02-22T19:56:41.152Z,103673.16
2019-02-22T20:01:47.072Z,103666.87
2019-02-22T20:06:54.422Z,103663.90
2019-02-22T20:12:00.229Z,103671.45
2019-02-22T20:17:05.939Z,103679.29
2019-02-22T20:22:11.799Z,103689.45
2019-02-22T20:27:17.970Z,103695.32
2019-02-22T20:32:24.032Z,103703.88
2019-02-22T20:37:30.270Z,103719.65
2019-02-22T20:42:36.693Z,103727.86
2019-02-22T20:47:43.861Z,103720.78
2019-02-22T20:52:50.359Z,103708.72
2019-02-22T20:57:56.713Z,103705.55
2019-02-22T21:03:04.260Z,103709.98
2019-02-22T21:08:11.091Z,103709.66
2019-02-22T21:13:17.629Z,103714.30
2019-02-22T21:18:23.594Z,103726.33
2019-02-22T21:23:29.550Z,103728.41
2019-02-22T21:28:36.081Z,103729.17
2019-02-22T21:33:42.340Z,103736.03
2019-02-22T21:38:48.417Z,103739.95
2019-02-22T21:43:54.211Z,103750.34
2019-02-22T21:49:00.417Z,103752.94
2019-02-22T21:54:06.835Z,103763.16
2019-02-22T21:59:13.597Z,103782.24
2019-02-22T22:04:19.690Z,103791.33
2019-02-22T22:09:25.738Z,103808.97
2019-02-22T22:14:31.857Z,103797.62
2019-02-22T22:19:37.962Z,103811.32
2019-02-22T22:24:44.081Z,103824.48
2019-02-22T22:29:50.899Z,103825.28
2019-02-22T22:34:58.232Z,103838.20
2019-02-22T22:40:05.626Z,103840.44
2019-02-22T22:45:13.780Z,103846.48
2019-02-22T22:50:19.927Z,103848.27
2019-02-22T22:55:25.606Z,103840.25
2019-02-22T23:00:51.383Z,103821.05
2019-02-22T23:05:58.589Z,103821.23
2019-02-22T23:11:04.254Z,103824.11
2019-02-22T23:16:11.534Z,103815.15
2019-02-22T23:21:18.210Z,103842.74
2019-02-22T23:26:24.176Z,103850.75
2019-02-22T23:31:30.325Z,103860.30
2019-02-22T23:36:36.277Z,103875.70
2019-02-22T23:41:42.072Z,103886.48
2019-02-22T23:46:47.792Z,103893.45
2019-02-22T23:51:54.317Z,103890.06
2019-02-22T23:57:00.658Z,103881.12
